Time;durP1;ratioP1;P1;durP2;ratioP2;P2;SDS_P1;SDS_P2;PMS_P1;PMS_P2;Temp;Humidity;BMP_temperature;BMP_pressure;BME280_temperature;BME280_humidity;BME280_pressure;Samples;Min_cycle;Max_cycle;Signal;HPM_P1;HPM_P2
2021/03/25 00:01:03;;;;;;;38.40;19.42;;;5.60;99.90;;;;;;5092281;28;20373;-61
2021/03/25 00:03:28;;;;;;;34.80;18.10;;;5.70;99.90;;;;;;5092495;28;20444;-61
2021/03/25 00:05:54;;;;;;;26.85;14.30;;;5.80;99.90;;;;;;5091976;28;20871;-60
2021/03/25 00:08:23;;;;;;;31.48;16.23;;;5.80;99.90;;;;;;5091937;28;20543;-61
2021/03/25 00:10:49;;;;;;;28.75;15.43;;;5.80;99.90;;;;;;5091506;28;20923;-61
2021/03/25 00:13:15;;;;;;;23.55;13.05;;;5.80;99.90;;;;;;5092245;28;20884;-61
2021/03/25 00:15:40;;;;;;;23.48;13.38;;;5.70;99.90;;;;;;5074353;28;20528;-61
2021/03/25 00:18:07;;;;;;;24.57;13.93;;;5.60;99.90;;;;;;5091114;28;20704;-61
2021/03/25 00:20:33;;;;;;;25.98;14.45;;;5.60;99.90;;;;;;5092648;28;20411;-61
2021/03/25 00:22:58;;;;;;;21.70;12.20;;;5.60;99.90;;;;;;5090407;28;20389;-61
2021/03/25 00:25:32;;;;;;;24.57;13.70;;;5.70;99.90;;;;;;5092759;28;20402;-61
2021/03/25 00:27:58;;;;;;;19.48;12.20;;;5.60;99.90;;;;;;5074460;28;20867;-61
2021/03/25 00:30:28;;;;;;;22.77;12.88;;;5.60;99.90;;;;;;5091684;28;20522;-61
2021/03/25 00:32:54;;;;;;;21.63;12.38;;;5.60;99.90;;;;;;5091889;28;20409;-61
2021/03/25 00:35:21;;;;;;;21.58;11.77;;;5.50;99.90;;;;;;5091140;28;20866;-61
2021/03/25 00:37:47;;;;;;;24.42;13.95;;;5.50;99.90;;;;;;5091034;28;20394;-61
2021/03/25 00:40:13;;;;;;;22.52;12.77;;;5.40;99.90;;;;;;5092405;28;20932;-61
2021/03/25 00:42:39;;;;;;;23.67;12.82;;;5.40;99.90;;;;;;5074494;28;20396;-61
2021/03/25 00:45:08;;;;;;;23.77;12.35;;;5.30;99.90;;;;;;5092187;28;20721;-61
2021/03/25 00:47:34;;;;;;;21.33;12.35;;;5.30;99.90;;;;;;5092860;28;20377;-61
2021/03/25 00:49:59;;;;;;;22.23;13.15;;;5.30;99.90;;;;;;5091430;28;21157;-61
2021/03/25 00:52:25;;;;;;;20.53;12.47;;;5.10;99.90;;;;;;5092415;28;20460;-61
2021/03/25 00:54:51;;;;;;;25.17;13.80;;;5.10;99.90;;;;;;5073809;28;20378;-62
2021/03/25 00:57:16;;;;;;;25.37;13.97;;;5.10;99.90;;;;;;5074229;28;20410;-61
2021/03/25 00:59:42;;;;;;;24.20;13.37;;;5.00;99.90;;;;;;5091633;28;20382;-60
2021/03/25 01:02:07;;;;;;;23.83;13.73;;;5.10;99.90;;;;;;5092045;28;20386;-61
2021/03/25 01:04:33;;;;;;;19.80;11.80;;;5.20;99.90;;;;;;5092370;28;20454;-62
2021/03/25 01:06:59;;;;;;;23.25;13.32;;;5.60;99.90;;;;;;5091452;28;20555;-61
2021/03/25 01:09:27;;;;;;;21.47;12.80;;;5.30;99.90;;;;;;5092112;28;20386;-61
2021/03/25 01:11:54;;;;;;;23.80;13.68;;;7.00;99.90;;;;;;5091518;28;20391;-61
2021/03/25 01:14:22;;;;;;;24.20;12.82;;;5.30;99.90;;;;;;5092108;28;20426;-61
2021/03/25 01:16:50;;;;;;;23.50;13.57;;;5.30;99.90;;;;;;5091272;28;20848;-61
2021/03/25 01:19:24;;;;;;;24.73;13.30;;;5.20;99.90;;;;;;5091975;28;20378;-61
2021/03/25 01:21:50;;;;;;;23.83;13.68;;;5.20;99.90;;;;;;5091379;28;20386;-61
2021/03/25 01:24:16;;;;;;;25.92;13.98;;;5.30;99.90;;;;;;5091954;28;20439;-61
2021/03/25 01:26:42;;;;;;;22.35;13.48;;;6.90;99.90;;;;;;5091189;28;20864;-60
2021/03/25 01:29:08;;;;;;;27.92;13.45;;;6.50;99.90;;;;;;5091911;28;20375;-61
2021/03/25 01:31:34;;;;;;;22.73;12.98;;;5.00;99.90;;;;;;5091883;28;20522;-61
2021/03/25 01:34:00;;;;;;;22.45;12.15;;;4.90;99.90;;;;;;5090688;28;20414;-61
2021/03/25 01:36:26;;;;;;;27.77;14.02;;;4.80;99.90;;;;;;5091675;28;20378;-61
2021/03/25 01:38:52;;;;;;;23.90;13.77;;;4.70;99.90;;;;;;5072619;28;20875;-60
2021/03/25 01:41:18;;;;;;;27.65;14.07;;;5.30;99.90;;;;;;5091374;28;20421;-60
2021/03/25 01:43:46;;;;;;;25.20;13.73;;;4.70;99.90;;;;;;5090906;28;20778;-60
2021/03/25 01:46:16;;;;;;;25.45;14.68;;;4.70;99.90;;;;;;5091427;28;20443;-61
2021/03/25 01:48:46;;;;;;;29.40;15.20;;;4.70;99.90;;;;;;5090699;28;20386;-60
2021/03/25 01:51:32;;;;;;;25.60;14.27;;;4.80;99.90;;;;;;5091521;28;20456;-61
2021/03/25 01:54:22;;;;;;;29.50;14.53;;;4.80;99.90;;;;;;5090167;28;20492;-61
2021/03/25 01:57:10;;;;;;;22.53;13.27;;;4.80;99.90;;;;;;5090390;28;20810;-60
2021/03/25 02:00:10;;;;;;;24.50;13.97;;;4.70;99.90;;;;;;5091165;28;20844;-61
2021/03/25 02:02:44;;;;;;;28.50;15.80;;;4.70;99.90;;;;;;5091018;28;20410;-61
2021/03/25 02:05:27;;;;;;;24.53;13.97;;;4.60;99.90;;;;;;5090899;28;20390;-61
2021/03/25 02:08:36;;;;;;;24.25;14.73;;;4.50;99.90;;;;;;5090184;28;20377;-60
2021/03/25 02:11:08;;;;;;;24.00;13.73;;;4.60;99.90;;;;;;5090118;28;20957;-61
2021/03/25 02:13:59;;;;;;;24.85;14.65;;;4.60;99.90;;;;;;5090618;28;20409;-61
2021/03/25 02:16:45;;;;;;;26.83;15.35;;;4.60;99.90;;;;;;5090691;28;20885;-60
2021/03/25 02:19:39;;;;;;;23.48;13.98;;;4.50;99.90;;;;;;5090816;28;20492;-60
2021/03/25 02:22:11;;;;;;;30.70;15.60;;;4.40;99.90;;;;;;5090015;28;20393;-60
2021/03/25 02:24:49;;;;;;;25.70;15.27;;;6.00;99.90;;;;;;5090601;28;20389;-60
2021/03/25 02:27:41;;;;;;;26.92;15.73;;;4.30;99.90;;;;;;5090981;28;20390;-60
2021/03/25 02:30:10;;;;;;;25.75;14.13;;;4.30;99.90;;;;;;5090601;28;20407;-61
2021/03/25 02:32:52;;;;;;;24.73;14.03;;;4.30;99.90;;;;;;5090462;28;20402;-60
2021/03/25 02:35:32;;;;;;;28.98;15.20;;;4.20;99.90;;;;;;5091019;28;20378;-61
2021/03/25 02:38:08;;;;;;;23.38;14.35;;;4.20;99.90;;;;;;5088610;28;20382;-61
2021/03/25 02:40:39;;;;;;;25.02;14.70;;;4.20;99.90;;;;;;5090805;28;20473;-61
2021/03/25 02:43:11;;;;;;;26.20;15.80;;;4.10;99.90;;;;;;5088601;28;20471;-60
2021/03/25 02:45:48;;;;;;;23.30;13.95;;;4.10;99.90;;;;;;5072397;28;20854;-61
2021/03/25 02:48:19;;;;;;;24.73;14.32;;;4.40;99.90;;;;;;5072207;28;20806;-61
2021/03/25 02:50:59;;;;;;;26.90;14.13;;;4.00;99.90;;;;;;5088377;28;20863;-60
2021/03/25 02:53:29;;;;;;;26.90;15.00;;;4.00;99.90;;;;;;5090412;28;20410;-60
2021/03/25 02:56:00;;;;;;;25.13;13.90;;;4.00;99.90;;;;;;5087981;28;20402;-61
2021/03/25 02:58:28;;;;;;;23.92;14.43;;;4.00;99.90;;;;;;5089124;28;20382;-60
2021/03/25 03:01:00;;;;;;;21.65;13.25;;;4.10;99.90;;;;;;5088405;28;20386;-60
2021/03/25 03:03:42;;;;;;;26.35;13.52;;;4.00;99.90;;;;;;5090574;28;20466;-61
2021/03/25 03:06:26;;;;;;;24.58;14.23;;;4.00;99.90;;;;;;5088496;28;20704;-61
2021/03/25 03:08:53;;;;;;;26.15;13.90;;;4.00;99.90;;;;;;5089529;28;20362;-60
2021/03/25 03:11:46;;;;;;;27.27;14.25;;;3.90;99.90;;;;;;5069010;28;20919;-60
2021/03/25 03:14:22;;;;;;;27.50;13.90;;;4.90;99.90;;;;;;5086829;28;20974;-61
2021/03/25 03:16:53;;;;;;;27.83;14.82;;;4.00;99.90;;;;;;5088230;28;20378;-60
2021/03/25 03:19:29;;;;;;;24.05;14.43;;;3.90;99.90;;;;;;5088848;28;20536;-60
2021/03/25 03:22:03;;;;;;;23.65;13.23;;;6.40;99.90;;;;;;5089744;28;20472;-60
2021/03/25 03:24:29;;;;;;;25.05;14.68;;;3.90;99.90;;;;;;5088841;28;20891;-61
2021/03/25 03:27:09;;;;;;;23.23;12.75;;;3.90;99.90;;;;;;5089224;28;20394;-60
2021/03/25 03:29:36;;;;;;;25.53;13.67;;;3.90;99.90;;;;;;5088414;28;20398;-60
2021/03/25 03:32:25;;;;;;;22.02;13.60;;;3.90;99.90;;;;;;5070397;28;20457;-60
2021/03/25 03:34:57;;;;;;;23.65;13.20;;;3.80;99.90;;;;;;5088937;28;20400;-60
2021/03/25 03:37:42;;;;;;;23.23;12.85;;;5.80;99.90;;;;;;5088686;28;20382;-60
2021/03/25 03:40:27;;;;;;;22.92;12.70;;;3.80;99.90;;;;;;5071633;28;20390;-60
2021/03/25 03:43:05;;;;;;;24.55;13.27;;;3.80;99.90;;;;;;5088463;28;20402;-60
2021/03/25 03:45:34;;;;;;;26.58;12.23;;;3.80;99.90;;;;;;5089422;28;20386;-61
2021/03/25 03:48:06;;;;;;;24.90;12.67;;;3.80;99.90;;;;;;5087602;28;20476;-60
2021/03/25 03:50:38;;;;;;;20.88;12.70;;;3.80;99.90;;;;;;5089369;28;20386;-60
2021/03/25 03:53:05;;;;;;;19.70;11.70;;;3.70;99.90;;;;;;5086947;28;20905;-60
2021/03/25 03:55:31;;;;;;;21.55;13.10;;;3.60;99.90;;;;;;5089232;28;20382;-61
2021/03/25 03:58:16;;;;;;;23.48;12.00;;;4.60;99.90;;;;;;5087617;28;20390;-60
2021/03/25 04:00:47;;;;;;;20.58;11.88;;;3.50;99.90;;;;;;5088112;28;20386;-60
2021/03/25 04:03:26;;;;;;;19.88;12.27;;;3.60;99.90;;;;;;5089173;28;20390;-60
2021/03/25 04:06:03;;;;;;;20.65;11.88;;;5.20;99.90;;;;;;5087391;28;20424;-61
2021/03/25 04:08:39;;;;;;;21.90;11.95;;;3.60;99.90;;;;;;5089602;28;20731;-60
2021/03/25 04:11:39;;;;;;;21.75;12.38;;;3.50;99.90;;;;;;5088492;28;20416;-60
2021/03/25 04:14:20;;;;;;;19.02;11.65;;;5.50;99.90;;;;;;5066378;28;20431;-60
2021/03/25 04:16:47;;;;;;;22.88;12.30;;;3.60;99.90;;;;;;5091777;28;20378;-59
2021/03/25 04:19:24;;;;;;;21.52;12.88;;;3.50;99.90;;;;;;5092420;28;20390;-60
2021/03/25 04:21:52;;;;;;;23.42;13.25;;;3.60;99.90;;;;;;5091439;28;20501;-60
2021/03/25 04:24:24;;;;;;;21.50;12.55;;;3.60;99.90;;;;;;5092227;28;20397;-60
2021/03/25 04:27:00;;;;;;;22.10;12.57;;;3.60;99.90;;;;;;5091519;28;20743;-60
2021/03/25 04:29:37;;;;;;;18.73;11.43;;;5.90;99.90;;;;;;5093091;28;20886;-60
2021/03/25 04:32:03;;;;;;;21.67;12.20;;;3.60;99.90;;;;;;5084228;28;20400;-60
2021/03/25 04:34:29;;;;;;;22.43;12.60;;;3.50;99.90;;;;;;5072115;28;20938;-60
2021/03/25 04:36:56;;;;;;;19.97;11.97;;;4.00;99.90;;;;;;5092347;28;20410;-60
2021/03/25 04:39:23;;;;;;;20.40;11.83;;;4.50;99.90;;;;;;5091203;28;20450;-60
2021/03/25 04:41:50;;;;;;;19.27;11.60;;;3.50;99.90;;;;;;5091170;28;20382;-60
2021/03/25 04:44:41;;;;;;;19.30;11.93;;;3.50;99.90;;;;;;5091540;28;20397;-60
2021/03/25 04:47:27;;;;;;;20.63;12.20;;;3.50;99.90;;;;;;5073281;28;20388;-60
2021/03/25 04:50:00;;;;;;;20.05;12.00;;;3.50;99.90;;;;;;5072634;28;20737;-60
2021/03/25 04:52:28;;;;;;;20.85;11.60;;;3.40;99.90;;;;;;5092774;28;20386;-60
2021/03/25 04:54:54;;;;;;;20.80;11.75;;;5.50;99.90;;;;;;5077814;28;20561;-60
2021/03/25 04:57:31;;;;;;;19.30;11.35;;;4.60;99.90;;;;;;5091582;28;20509;-60
2021/03/25 05:00:00;;;;;;;19.20;11.52;;;3.50;99.90;;;;;;5088129;28;20397;-61
2021/03/25 05:02:27;;;;;;;22.53;11.80;;;3.50;99.90;;;;;;5076663;28;20380;-61
2021/03/25 05:04:56;;;;;;;20.17;11.05;;;4.30;99.90;;;;;;5079277;28;20387;-61
2021/03/25 05:07:28;;;;;;;19.58;11.85;;;6.10;99.90;;;;;;5092095;28;20396;-61
2021/03/25 05:09:56;;;;;;;21.15;11.75;;;3.60;99.90;;;;;;5090250;28;20390;-60
2021/03/25 05:12:22;;;;;;;18.67;11.30;;;4.10;99.90;;;;;;5090564;28;20410;-62
2021/03/25 05:14:52;;;;;;;20.03;11.27;;;3.60;99.90;;;;;;5089159;28;20483;-60
2021/03/25 05:17:46;;;;;;;21.77;11.40;;;3.60;99.90;;;;;;5090450;28;20394;-60
2021/03/25 05:20:30;;;;;;;16.63;10.82;;;3.60;99.90;;;;;;5091722;28;20378;-61
2021/03/25 05:23:07;;;;;;;18.70;11.80;;;3.60;99.90;;;;;;5082068;28;20481;-60
2021/03/25 05:25:54;;;;;;;19.13;12.38;;;3.50;99.90;;;;;;5091853;28;20447;-61
2021/03/25 05:28:32;;;;;;;17.90;11.13;;;3.50;99.90;;;;;;5091459;28;20374;-60
2021/03/25 05:30:59;;;;;;;22.02;11.80;;;5.10;99.90;;;;;;5083319;28;20521;-61
2021/03/25 05:33:28;;;;;;;22.55;11.80;;;3.60;99.90;;;;;;5090285;28;20413;-61
2021/03/25 05:36:09;;;;;;;20.17;11.57;;;3.60;99.90;;;;;;5090628;28;20409;-61
2021/03/25 05:38:35;;;;;;;19.50;11.70;;;3.70;99.90;;;;;;5080424;28;20403;-61
2021/03/25 05:41:26;;;;;;;20.30;12.13;;;3.70;99.90;;;;;;5080476;28;20902;-61
2021/03/25 05:43:57;;;;;;;17.48;10.80;;;3.80;99.90;;;;;;5081338;28;20414;-61
2021/03/25 05:46:32;;;;;;;19.45;10.70;;;3.90;99.90;;;;;;5074936;28;20393;-60
2021/03/25 05:49:05;;;;;;;20.30;11.57;;;4.00;99.90;;;;;;5081474;28;20417;-64
2021/03/25 05:51:49;;;;;;;20.03;11.33;;;4.40;99.90;;;;;;5090733;28;20394;-62
2021/03/25 05:54:14;;;;;;;20.73;10.77;;;4.30;99.90;;;;;;5088430;28;20402;-61
2021/03/25 05:56:55;;;;;;;17.47;10.40;;;4.50;99.90;;;;;;5090433;28;20447;-62
2021/03/25 05:59:27;;;;;;;19.55;10.80;;;4.70;99.90;;;;;;5089855;28;20402;-64
2021/03/25 06:02:08;;;;;;;16.92;10.15;;;5.00;99.90;;;;;;5089490;28;20453;-62
2021/03/25 06:04:36;;;;;;;19.25;10.70;;;5.30;99.90;;;;;;5090428;28;20413;-62
2021/03/25 06:07:05;;;;;;;18.80;10.60;;;5.70;99.90;;;;;;5090045;28;20401;-62
2021/03/25 06:09:51;;;;;;;18.15;10.95;;;7.90;99.90;;;;;;5089627;28;20409;-63
2021/03/25 06:12:45;;;;;;;16.23;9.93;;;6.60;99.90;;;;;;5085668;28;20447;-63
2021/03/25 06:15:20;;;;;;;17.80;9.73;;;7.40;99.90;;;;;;5064466;28;20406;-62
2021/03/25 06:18:23;;;;;;;22.90;9.97;;;7.80;99.90;;;;;;5089423;28;20398;-60
2021/03/25 06:21:08;;;;;;;16.90;9.37;;;8.60;99.90;;;;;;5084913;28;20394;-61
2021/03/25 06:23:57;;;;;;;16.92;9.80;;;9.70;99.90;;;;;;5081586;28;20451;-64
2021/03/25 06:26:34;;;;;;;15.30;9.10;;;10.50;99.90;;;;;;5090027;28;20417;-66
2021/03/25 06:29:14;;;;;;;21.67;10.40;;;11.40;99.90;;;;;;5088275;28;20402;-64
2021/03/25 06:31:51;;;;;;;19.20;10.33;;;12.10;99.90;;;;;;5090075;28;20401;-66
2021/03/25 06:34:36;;;;;;;15.80;9.80;;;12.60;99.90;;;;;;5088835;28;20449;-65
2021/03/25 06:37:14;;;;;;;17.02;10.05;;;12.50;99.90;;;;;;5089659;28;20380;-65
2021/03/25 06:39:54;;;;;;;15.55;9.38;;;12.70;99.90;;;;;;5083711;28;20417;-71
2021/03/25 06:42:25;;;;;;;15.77;10.25;;;12.80;98.70;;;;;;5090104;28;20378;-65
2021/03/25 06:45:14;;;;;;;18.83;9.80;;;12.70;99.50;;;;;;5089865;28;20390;-66
2021/03/25 06:47:57;;;;;;;16.00;9.63;;;12.50;99.10;;;;;;5088623;28;20501;-65
2021/03/25 06:50:40;;;;;;;18.97;10.33;;;12.20;99.90;;;;;;5090031;28;20374;-64
2021/03/25 06:53:17;;;;;;;18.77;10.97;;;11.90;99.90;;;;;;5089854;28;20416;-64
2021/03/25 06:55:43;;;;;;;17.63;10.90;;;12.00;99.90;;;;;;5079989;28;20798;-61
2021/03/25 06:58:14;;;;;;;18.50;10.10;;;12.40;99.90;;;;;;5084765;28;20398;-67
2021/03/25 07:00:46;;;;;;;18.08;11.13;;;12.70;99.90;;;;;;5080942;28;20890;-67
2021/03/25 07:03:16;;;;;;;16.15;10.15;;;13.00;99.50;;;;;;5088136;28;20434;-66
2021/03/25 07:05:42;;;;;;;16.07;10.30;;;13.10;98.60;;;;;;5077890;28;20785;-63
2021/03/25 07:08:20;;;;;;;17.00;10.82;;;13.40;99.30;;;;;;5087971;28;20487;-67
2021/03/25 07:10:55;;;;;;;17.92;10.07;;;13.80;97.70;;;;;;5089311;28;20398;-60
2021/03/25 07:13:36;;;;;;;18.33;10.50;;;13.90;97.50;;;;;;5087304;28;20783;-67
2021/03/25 07:16:04;;;;;;;16.42;10.68;;;14.50;95.00;;;;;;5088759;28;20383;-67
2021/03/25 07:18:51;;;;;;;15.57;10.45;;;13.90;94.80;;;;;;5089209;28;20818;-66
2021/03/25 07:21:21;;;;;;;16.33;10.10;;;13.30;96.90;;;;;;5089005;28;20452;-68
2021/03/25 07:23:47;;;;;;;17.42;11.02;;;14.10;96.80;;;;;;5088941;28;20386;-62
2021/03/25 07:26:29;;;;;;;15.27;10.32;;;14.80;95.50;;;;;;5069782;28;20401;-69
2021/03/25 07:29:24;;;;;;;16.17;10.52;;;15.50;93.80;;;;;;5088377;28;20475;-69
2021/03/25 07:31:56;;;;;;;16.90;10.70;;;16.40;90.30;;;;;;5055216;28;20465;-69
2021/03/25 07:34:33;;;;;;;17.05;10.82;;;16.40;87.50;;;;;;5089351;28;20441;-69
2021/03/25 07:37:00;;;;;;;16.90;10.43;;;16.40;85.50;;;;;;5088800;28;20840;-71
2021/03/25 07:39:44;;;;;;;16.60;10.63;;;17.00;85.10;;;;;;5088049;28;20398;-70
2021/03/25 07:42:10;;;;;;;17.63;10.70;;;17.40;82.70;;;;;;5087383;28;20423;-70
2021/03/25 07:44:43;;;;;;;16.17;10.52;;;17.60;79.50;;;;;;5090421;28;20476;-71
2021/03/25 07:47:35;;;;;;;18.75;10.85;;;17.90;77.80;;;;;;5091223;28;20409;-71
2021/03/25 07:50:30;;;;;;;17.05;10.65;;;19.00;74.80;;;;;;5091631;28;20465;-71
2021/03/25 07:52:56;;;;;;;17.27;10.70;;;19.00;70.90;;;;;;5091362;28;20463;-71
2021/03/25 07:55:24;;;;;;;16.10;10.25;;;19.10;73.10;;;;;;5093267;28;20885;-71
2021/03/25 07:57:52;;;;;;;16.25;10.23;;;19.60;68.60;;;;;;5091370;28;20868;-69
2021/03/25 08:00:21;;;;;;;17.20;9.93;;;19.30;67.40;;;;;;5093016;28;20370;-70
2021/03/25 08:02:46;;;;;;;16.52;10.82;;;18.90;68.70;;;;;;5091200;28;20401;-62
2021/03/25 08:05:29;;;;;;;15.10;10.40;;;19.60;68.20;;;;;;5087122;28;20435;-72
2021/03/25 08:07:58;;;;;;;17.45;10.23;;;19.90;64.60;;;;;;5072856;28;20459;-72
2021/03/25 08:10:30;;;;;;;15.68;10.30;;;20.20;63.10;;;;;;5092301;28;20372;-70
2021/03/25 08:13:20;;;;;;;17.30;10.60;;;20.00;63.10;;;;;;5072923;28;20410;-69
2021/03/25 08:16:08;;;;;;;20.27;11.38;;;20.40;62.30;;;;;;5062484;28;20725;-63
2021/03/25 08:19:04;;;;;;;15.25;10.27;;;20.80;61.00;;;;;;5092083;28;20440;-72
2021/03/25 08:22:04;;;;;;;17.67;10.80;;;21.60;59.00;;;;;;5092652;28;20386;-73
2021/03/25 08:24:54;;;;;;;16.00;10.50;;;22.20;57.30;;;;;;5092575;28;20472;-72
2021/03/25 08:27:32;;;;;;;17.40;10.80;;;22.50;54.30;;;;;;5090550;28;20386;-74
2021/03/25 08:30:32;;;;;;;16.27;10.50;;;23.00;54.10;;;;;;5090786;28;20440;-72
2021/03/25 08:33:19;;;;;;;16.42;10.50;;;22.20;55.00;;;;;;5073532;28;20406;-72
2021/03/25 08:36:18;;;;;;;19.40;11.50;;;21.30;56.00;;;;;;5073126;28;20394;-73
2021/03/25 08:39:08;;;;;;;19.15;11.65;;;21.00;57.40;;;;;;5091275;28;20397;-73
2021/03/25 08:41:47;;;;;;;15.73;10.90;;;21.40;57.50;;;;;;5074397;28;20469;-73
2021/03/25 08:44:31;;;;;;;15.38;10.32;;;21.40;56.60;;;;;;5072450;28;20414;-73
2021/03/25 08:47:01;;;;;;;18.87;11.37;;;22.00;56.30;;;;;;5073260;28;20390;-73
2021/03/25 08:49:55;;;;;;;17.37;11.30;;;23.30;54.60;;;;;;5090980;28;20394;-69
2021/03/25 08:52:23;;;;;;;15.93;10.82;;;23.30;53.40;;;;;;5068444;28;20406;-70
2021/03/25 08:54:59;;;;;;;16.77;11.07;;;24.10;53.10;;;;;;5091075;28;20956;-67
2021/03/25 08:57:36;;;;;;;26.40;10.80;;;25.30;50.40;;;;;;5073275;28;20473;-72
2021/03/25 09:00:07;;;;;;;15.38;10.52;;;25.70;48.80;;;;;;5091825;28;20392;-71
2021/03/25 09:02:49;;;;;;;17.10;11.32;;;25.20;49.00;;;;;;5091951;28;20786;-71
2021/03/25 09:05:35;;;;;;;18.52;11.55;;;24.70;49.50;;;;;;5078299;28;20387;-71
2021/03/25 09:08:05;;;;;;;13.85;10.60;;;25.20;49.20;;;;;;5071002;28;20861;-72
2021/03/25 09:10:50;;;;;;;16.10;11.20;;;25.20;49.30;;;;;;5071366;28;20387;-69
2021/03/25 09:13:27;;;;;;;16.42;10.23;;;25.10;48.10;;;;;;5071595;28;20419;-71
2021/03/25 09:15:56;;;;;;;15.95;11.07;;;25.20;47.70;;;;;;5070358;28;20725;-70
2021/03/25 09:18:29;;;;;;;14.43;10.63;;;24.30;49.10;;;;;;5071868;28;20866;-71
2021/03/25 09:21:07;;;;;;;18.98;11.00;;;24.00;49.10;;;;;;5070524;28;20395;-70
2021/03/25 09:23:32;;;;;;;15.50;10.00;;;24.00;50.10;;;;;;5071463;28;20964;-71
2021/03/25 09:26:22;;;;;;;14.43;10.30;;;24.30;49.20;;;;;;5052710;28;20447;-69
2021/03/25 09:28:58;;;;;;;16.10;10.40;;;24.50;48.80;;;;;;5052807;28;20398;-63
2021/03/25 09:31:26;;;;;;;18.77;10.55;;;25.50;47.50;;;;;;5071220;28;20376;-69
2021/03/25 09:33:55;;;;;;;16.75;10.77;;;25.80;46.20;;;;;;5070790;28;20419;-69
2021/03/25 09:36:21;;;;;;;15.20;10.20;;;24.80;46.90;;;;;;5071100;28;20384;-70
2021/03/25 09:38:58;;;;;;;15.68;10.07;;;24.60;47.40;;;;;;5070904;28;20376;-63
2021/03/25 09:41:30;;;;;;;15.67;10.60;;;25.00;47.00;;;;;;5071300;28;20418;-71
2021/03/25 09:44:08;;;;;;;19.20;10.32;;;25.10;47.10;;;;;;5052376;28;20841;-70
2021/03/25 09:46:44;;;;;;;14.30;9.75;;;25.40;45.90;;;;;;5070579;28;20389;-69
2021/03/25 09:49:28;;;;;;;13.75;9.52;;;25.10;45.40;;;;;;5070006;28;20425;-69
2021/03/25 09:52:12;;;;;;;15.52;9.63;;;25.50;45.40;;;;;;5052230;28;20434;-67
2021/03/25 09:54:52;;;;;;;14.55;9.30;;;24.70;45.60;;;;;;5070404;28;20410;-70
2021/03/25 09:57:42;;;;;;;15.55;9.40;;;25.60;43.80;;;;;;5070802;28;20486;-69
2021/03/25 10:00:24;;;;;;;13.15;8.20;;;25.40;43.80;;;;;;5069814;28;20380;-68
2021/03/25 10:02:52;;;;;;;14.25;8.88;;;24.10;44.30;;;;;;5070201;28;20375;-68
2021/03/25 10:05:24;;;;;;;11.97;8.30;;;24.10;45.30;;;;;;5084865;28;20386;-68
2021/03/25 10:08:22;;;;;;;14.30;8.65;;;24.60;44.70;;;;;;5090739;28;20378;-61
2021/03/25 10:11:01;;;;;;;13.68;8.10;;;25.40;43.80;;;;;;5090302;28;20399;-62
2021/03/25 10:13:29;;;;;;;13.75;7.47;;;24.80;44.30;;;;;;5090721;28;20485;-67
2021/03/25 10:16:04;;;;;;;14.57;8.10;;;25.30;43.90;;;;;;5090235;28;20405;-70
2021/03/25 10:18:30;;;;;;;14.00;7.57;;;26.10;42.20;;;;;;5090907;28;20906;-69
2021/03/25 10:21:11;;;;;;;13.77;7.20;;;25.60;42.70;;;;;;5071488;28;20477;-69
2021/03/25 10:23:44;;;;;;;14.80;8.88;;;25.50;42.80;;;;;;5091143;28;20451;-69
2021/03/25 10:26:10;;;;;;;13.60;8.85;;;25.10;43.90;;;;;;5089948;28;20445;-68
2021/03/25 10:28:44;;;;;;;16.57;8.40;;;24.50;44.60;;;;;;5090602;28;20414;-69
2021/03/25 10:31:35;;;;;;;15.07;8.18;;;24.10;44.80;;;;;;5088477;28;20966;-68
2021/03/25 10:34:14;;;;;;;14.15;7.78;;;24.70;44.40;;;;;;5047846;28;20962;-68
2021/03/25 10:36:43;;;;;;;13.77;8.23;;;24.70;44.50;;;;;;5072530;28;20390;-68
2021/03/25 10:39:22;;;;;;;16.13;8.70;;;24.70;45.40;;;;;;5089575;28;20370;-68
2021/03/25 10:41:48;;;;;;;14.20;8.00;;;25.00;44.80;;;;;;5090142;28;20406;-62
2021/03/25 10:44:17;;;;;;;14.20;7.90;;;24.40;44.50;;;;;;5089837;28;20496;-68
2021/03/25 10:46:42;;;;;;;11.95;6.97;;;24.80;44.30;;;;;;5090080;28;20381;-68
2021/03/25 10:49:18;;;;;;;14.40;8.20;;;25.00;44.10;;;;;;5089244;28;20870;-68
2021/03/25 10:51:47;;;;;;;11.80;7.22;;;25.30;43.50;;;;;;5090589;28;20410;-68
2021/03/25 10:54:30;;;;;;;14.93;8.40;;;24.90;43.70;;;;;;5087935;28;20424;-69
2021/03/25 10:57:04;;;;;;;14.20;7.50;;;24.80;43.00;;;;;;5088777;28;20402;-68
2021/03/25 10:59:31;;;;;;;14.05;7.80;;;24.40;44.00;;;;;;5071881;28;20783;-66
2021/03/25 11:01:59;;;;;;;12.80;7.60;;;25.00;44.10;;;;;;5087347;28;20394;-67
2021/03/25 11:04:28;;;;;;;13.00;7.27;;;25.60;43.20;;;;;;5083011;28;20384;-67
2021/03/25 11:06:54;;;;;;;15.00;8.00;;;24.90;44.60;;;;;;5068589;28;20382;-68
2021/03/25 11:09:29;;;;;;;12.38;7.20;;;24.80;43.80;;;;;;5085767;28;20402;-67
2021/03/25 11:11:59;;;;;;;14.05;7.70;;;24.00;43.80;;;;;;5088631;28;20447;-66
2021/03/25 11:14:40;;;;;;;12.80;7.10;;;23.90;44.50;;;;;;5089360;28;20745;-66
2021/03/25 11:17:15;;;;;;;13.20;7.07;;;23.30;45.40;;;;;;5089122;28;20844;-67
2021/03/25 11:19:45;;;;;;;19.83;7.97;;;22.50;45.70;;;;;;5092762;28;20958;-64
2021/03/25 11:22:12;;;;;;;15.40;7.50;;;22.50;46.70;;;;;;5095710;28;20394;-66
2021/03/25 11:24:39;;;;;;;15.23;6.60;;;23.20;46.90;;;;;;5096200;28;20381;-66
2021/03/25 11:27:18;;;;;;;13.83;6.97;;;23.50;46.90;;;;;;5095242;28;20465;-66
2021/03/25 11:29:46;;;;;;;13.40;6.65;;;23.10;45.80;;;;;;5078001;28;20396;-65
2021/03/25 11:32:31;;;;;;;14.20;6.90;;;23.00;46.10;;;;;;5095118;28;20382;-66
2021/03/25 11:35:21;;;;;;;13.70;6.85;;;22.10;47.40;;;;;;5095706;28;20437;-65
2021/03/25 11:37:47;;;;;;;15.52;7.47;;;22.10;47.90;;;;;;5078244;28;20733;-65
2021/03/25 11:40:17;;;;;;;13.40;6.47;;;21.70;47.90;;;;;;5095760;28;20393;-66
2021/03/25 11:42:46;;;;;;;12.43;5.80;;;21.30;48.20;;;;;;5096678;28;20393;-67
2021/03/25 11:45:30;;;;;;;15.10;6.35;;;21.20;49.30;;;;;;5094909;28;20886;-65
2021/03/25 11:47:56;;;;;;;12.25;5.88;;;21.20;48.70;;;;;;5077087;28;20392;-64
2021/03/25 11:50:32;;;;;;;15.32;6.70;;;21.50;48.80;;;;;;5095998;28;20378;-65
2021/03/25 11:53:01;;;;;;;12.05;6.00;;;21.50;48.20;;;;;;5095192;28;20385;-65
2021/03/25 11:55:36;;;;;;;11.60;6.00;;;21.50;48.60;;;;;;5096249;28;20394;-65
2021/03/25 11:58:23;;;;;;;12.10;6.30;;;21.20;47.90;;;;;;5095613;28;20386;-65
2021/03/25 12:01:20;;;;;;;14.10;6.57;;;20.90;48.30;;;;;;5077804;28;20732;-66
2021/03/25 12:04:02;;;;;;;13.57;6.20;;;21.30;48.20;;;;;;5094618;28;20451;-65
2021/03/25 12:06:34;;;;;;;13.97;6.10;;;21.10;48.20;;;;;;5075865;28;20698;-65
2021/03/25 12:09:14;;;;;;;11.82;5.68;;;20.80;48.60;;;;;;5075027;28;20384;-65
2021/03/25 12:11:43;;;;;;;10.13;5.50;;;21.10;48.90;;;;;;5075702;28;20418;-65
2021/03/25 12:14:09;;;;;;;12.10;6.60;;;21.10;48.50;;;;;;5074800;28;20469;-65
2021/03/25 12:16:36;;;;;;;11.37;5.80;;;21.00;47.50;;;;;;5075715;28;20376;-65
2021/03/25 12:19:05;;;;;;;11.02;5.90;;;20.80;48.30;;;;;;5073948;28;20564;-64
2021/03/25 12:21:32;;;;;;;13.65;7.13;;;21.30;47.20;;;;;;5075745;28;20390;-64
2021/03/25 12:23:59;;;;;;;12.68;6.28;;;21.40;47.80;;;;;;5075167;28;20415;-64
2021/03/25 12:26:25;;;;;;;12.43;6.47;;;21.30;47.20;;;;;;5074985;28;20895;-64
2021/03/25 12:28:51;;;;;;;13.75;6.80;;;21.50;47.00;;;;;;5075252;28;20387;-61
2021/03/25 12:31:23;;;;;;;12.10;5.80;;;21.60;47.10;;;;;;5071923;28;20398;-64
2021/03/25 12:33:49;;;;;;;13.30;6.57;;;21.60;47.80;;;;;;5072283;28;20482;-65
2021/03/25 12:36:15;;;;;;;12.95;6.50;;;22.60;48.40;;;;;;5053530;28;20415;-65
2021/03/25 12:38:41;;;;;;;12.90;6.60;;;21.90;47.20;;;;;;5060330;28;20459;-64
2021/03/25 12:41:12;;;;;;;11.60;6.20;;;22.00;46.40;;;;;;5090843;28;20386;-67
2021/03/25 12:43:37;;;;;;;12.80;6.25;;;22.20;46.20;;;;;;5091640;28;20438;-64
2021/03/25 12:46:06;;;;;;;13.00;6.67;;;22.00;46.80;;;;;;5079708;28;20854;-63
2021/03/25 12:48:33;;;;;;;20.60;7.47;;;21.60;47.00;;;;;;5077223;28;20378;-64
2021/03/25 12:51:00;;;;;;;12.43;5.93;;;21.30;46.70;;;;;;5080086;28;20857;-64
2021/03/25 12:53:29;;;;;;;15.63;6.68;;;20.80;47.80;;;;;;5083281;28;20904;-61
2021/03/25 12:55:57;;;;;;;13.00;6.25;;;20.40;49.40;;;;;;5079663;28;20393;-61
2021/03/25 12:58:37;;;;;;;12.65;5.80;;;19.80;50.20;;;;;;5081509;28;20455;-63
2021/03/25 13:01:08;;;;;;;12.23;6.22;;;19.50;50.60;;;;;;5087832;28;20454;-62
2021/03/25 13:03:36;;;;;;;13.23;6.20;;;19.30;50.80;;;;;;5076453;28;20399;-62
2021/03/25 13:06:03;;;;;;;15.73;6.40;;;19.40;51.50;;;;;;5079956;28;20432;-64
2021/03/25 13:08:29;;;;;;;13.67;6.60;;;19.50;51.30;;;;;;5084877;28;20422;-61
2021/03/25 13:10:55;;;;;;;15.95;6.05;;;19.50;50.90;;;;;;5062079;28;20423;-63
2021/03/25 13:13:23;;;;;;;15.93;6.20;;;19.30;50.20;;;;;;5063433;28;20425;-62